Latest Weather Observations for Middle Point

IDD60801

Issued at 3:01 pm CST Sunday 20 August 2017 (issued every 30 minutes, with the page automatically refreshed every 10 minutes)

About weather observations | Map of weather stations | Latest weather observations for NT | Other Formats
Station Details ID: 014041 Name: MIDDLE POINT Lat: -12.61 Lon: 131.30 Height: 14.1 m
Data from the previous 72 hours. | See also: Recent months at Middle Point
Date/Time
CST
Temp
°C
App
Temp
°C
Dew
Point
°C
Rel
Hum
%
Delta-T
°C
Wind Press
QNH
hPa
Press
MSL
hPa
Rain since
9am
mm
Dir  Spd
km/h
Gust
km/h
Spd
kts
Gust
kts
20/03:00pm 35.7 32.9 8.5 19 15.4 E 13 22 7 12 1010.4 1010.4 0.0
20/02:30pm 35.5 32.5 9.1 20 15.1 E 15 24 8 13 1010.9 1010.8 0.0
20/02:00pm 34.9 31.2 9.3 21 14.6 E 19 30 10 16 1011.3 1011.2 0.0
20/01:30pm 35.5 32.3 11.2 23 14.3 E 19 28 10 15 1011.9 1011.8 0.0
20/01:00pm 34.7 31.7 12.4 26 13.4 E 20 35 11 19 1012.4 1012.3 0.0
20/12:30pm 33.6 31.9 14.6 31 11.7 ESE 17 26 9 14 1013.0 1012.9 0.0
20/12:00pm 33.6 31.6 15.6 34 11.3 ENE 20 32 11 17 1013.6 1013.5 0.0
20/11:30am 32.9 31.8 16.3 37 10.5 E 17 28 9 15 1014.1 1014.0 0.0
20/11:00am 32.6 31.0 16.4 37 10.2 E 20 30 11 16 1014.7 1014.6 0.0
20/10:30am 30.8 30.7 18.8 48 7.8 E 17 24 9 13 1015.0 1014.9 0.0
20/10:00am 28.7 31.2 21.0 63 5.1 E 9 15 5 8 1015.2 1015.1 0.0
20/09:30am 27.5 30.7 21.3 69 4.1 SE 6 9 3 5 1015.3 1015.2 0.0
20/09:00am 26.0 29.9 21.9 78 2.7 SSE 4 6 2 3 1015.1 1015.0 0.0
20/08:30am 23.6 27.5 21.1 86 1.6 S 2 4 1 2 1014.9 1014.8 0.0
20/08:00am 21.6 25.5 21.1 97 0.3 ESE 2 4 1 2 1014.5 1014.4 0.0
20/07:30am 17.5 19.9 17.0 97 0.3 CALM 0 0 0 0 1014.3 1014.2 0.0
20/07:00am 16.7 18.4 15.1 90 0.9 CALM 0 0 0 0 1013.8 1013.7 0.0
20/06:30am 17.6 19.8 16.6 94 0.6 CALM 0 0 0 0 1013.6 1013.5 0.0
20/06:00am 18.3 20.5 17.5 95 0.5 E 2 6 1 3 1013.3 1013.2 0.0
20/05:30am 18.5 20.9 17.9 96 0.4 NNW 2 4 1 2 1013.1 1013.0 0.0
20/05:00am 18.3 20.6 17.8 97 0.3 NNW 2 2 1 1 1013.0 1012.9 0.0
20/04:30am 17.8 19.1 17.0 95 0.5 NNW 6 7 3 4 1012.7 1012.6 0.0
20/04:00am 18.2 19.5 17.2 94 0.6 WNW 6 6 3 3 1012.9 1012.8 0.0
20/03:30am 19.2 22.0 18.9 98 0.2 WNW 2 4 1 2 1013.0 1012.9 0.0
20/03:00am 17.9 19.2 17.1 95 0.5 NW 6 6 3 3 1012.9 1012.8 0.0
20/02:30am 18.4 20.1 17.1 92 0.8 NE 4 4 2 2 1013.1 1013.0 0.0
20/02:00am 19.6 22.3 17.7 89 1.2 CALM 0 0 0 0 1013.1 1013.0 0.0
20/01:30am 19.4 22.3 18.1 92 0.8 CALM 0 0 0 0 1013.5 1013.4 0.0
20/01:00am 19.6 22.5 18.3 92 0.8 CALM 0 0 0 0 1013.7 1013.6 0.0
20/12:30am 19.6 22.2 17.6 88 1.2 CALM 0 0 0 0 1013.7 1013.6 0.0
20/12:00am 20.4 23.3 18.2 87 1.4 CALM 0 4 0 2 1013.9 1013.8 0.0
 
Date/Time
CST
Temp
°C
App
Temp
°C
Dew
Point
°C
Rel
Hum
%
Delta-T
°C
Wind Press
QNH
hPa
Press
MSL
hPa
Rain since
9am
mm
Dir  Spd
km/h
Gust
km/h
Spd
kts
Gust
kts
19/11:30pm 20.9 23.5 18.5 86 1.5 NNE 2 4 1 2 1013.8 1013.7 0.0
19/11:00pm 20.9 23.6 17.7 82 2.0 CALM 0 0 0 0 1013.7 1013.6 0.0
19/10:30pm 22.4 25.5 19.4 83 1.9 WNW 2 2 1 1 1013.6 1013.5 0.0
19/10:00pm 21.8 23.4 17.8 78 2.5 WNW 6 6 3 3 1013.5 1013.4 0.0
19/09:30pm 23.4 26.1 18.7 75 3.0 NW 2 4 1 2 1013.4 1013.3 0.0
19/09:00pm 23.3 25.0 18.0 72 3.3 NW 6 7 3 4 1013.1 1013.0 0.0
19/08:30pm 24.4 25.8 17.9 67 4.1 WNW 7 9 4 5 1012.8 1012.7 0.0
19/08:00pm 24.9 26.4 17.6 64 4.6 N 6 7 3 4 1012.1 1012.0 0.0
19/07:30pm 24.3 25.4 17.1 64 4.5 WNW 7 9 4 5 1011.6 1011.5 0.0
19/07:00pm 26.5 27.8 17.6 58 5.6 N 7 9 4 5 1010.9 1010.8 0.0
19/06:30pm 29.5 30.9 17.7 49 7.5 N 7 11 4 6 1010.4 1010.4 0.0
19/06:00pm 31.7 32.4 17.9 43 8.9 N 11 15 6 8 1009.9 1009.9 0.0
19/05:30pm 32.8 32.7 17.8 40 9.7 N 15 19 8 10 1009.7 1009.7 0.0
19/05:00pm 33.9 33.1 17.2 37 10.7 N 17 20 9 11 1009.7 1009.7 0.0
19/04:30pm 34.1 32.3 16.9 36 11.0 N 22 28 12 15 1009.6 1009.6 0.0
19/04:00pm 36.5 34.5 12.7 24 14.4 E 15 22 8 12 1009.7 1009.7 0.0
19/03:30pm 36.8 33.1 10.2 20 15.6 E 20 35 11 19 1010.1 1010.1 0.0
19/03:00pm 36.4 32.4 10.6 21 15.2 E 22 39 12 21 1010.3 1010.3 0.0
19/02:30pm 36.5 32.2 10.6 21 15.2 E 24 39 13 21 1010.9 1010.8 0.0
19/02:00pm 36.5 32.2 10.6 21 15.2 ESE 24 33 13 18 1011.4 1011.3 0.0
19/01:30pm 35.6 32.8 12.5 24 13.9 ESE 19 32 10 17 1012.0 1011.9 0.0
19/01:00pm 35.0 30.9 11.4 24 13.9 E 24 44 13 24 1012.6 1012.5 0.0
19/12:30pm 35.0 32.6 14.3 29 12.8 E 20 30 11 16 1013.4 1013.3 0.0
19/12:00pm 34.5 32.1 14.4 30 12.4 E 20 30 11 16 1014.0 1013.9 0.0
19/11:30am 32.8 30.8 14.9 34 11.0 E 19 30 10 16 1014.7 1014.6 0.0
19/11:00am 31.6 32.3 17.9 44 8.8 E 11 26 6 14 1015.3 1015.2 0.0
19/10:30am 29.5 31.3 19.5 55 6.5 SE 9 15 5 8 1015.6 1015.5 0.0
19/10:00am 28.9 31.4 19.8 58 6.0 ESE 6 9 3 5 1015.7 1015.6 0.0
19/09:30am 27.6 30.4 20.4 65 4.7 E 6 9 3 5 1015.5 1015.4 0.0
19/09:00am 26.2 29.4 20.5 71 3.7 ESE 4 6 2 3 1015.3 1015.2 0.0
19/08:30am 24.3 28.3 21.4 84 1.9 E 2 4 1 2 1015.1 1015.0 0.0
19/08:00am 20.9 25.0 20.7 99 0.1 CALM 0 0 0 0 1014.6 1014.5 0.0
19/07:30am 17.0 19.3 16.7 98 0.2 CALM 0 0 0 0 1014.1 1014.0 0.0
19/07:00am 16.4 18.4 16.1 98 0.2 CALM 0 0 0 0 1014.0 1013.9 0.0
19/06:30am 16.5 18.5 15.9 96 0.4 CALM 0 0 0 0 1013.7 1013.6 0.0
19/06:00am 16.9 18.9 16.1 95 0.5 CALM 0 0 0 0 1013.6 1013.5 0.0
19/05:30am 17.4 19.8 16.9 97 0.3 CALM 0 0 0 0 1013.3 1013.2 0.0
19/05:00am 17.5 19.8 16.7 95 0.5 CALM 0 0 0 0 1013.1 1013.0 0.0
19/04:30am 18.2 20.7 17.2 94 0.6 CALM 0 0 0 0 1013.2 1013.1 0.0
19/04:00am 18.7 21.3 17.5 93 0.7 CALM 0 0 0 0 1013.2 1013.1 0.0
19/03:30am 18.6 21.0 17.1 91 0.9 CALM 0 0 0 0 1013.4 1013.3 0.0
19/03:00am 19.1 21.8 17.8 92 0.8 CALM 0 0 0 0 1013.4 1013.3 0.0
19/02:30am 18.8 21.1 17.6 93 0.7 W 2 4 1 2 1013.5 1013.4 0.0
19/02:00am 19.6 22.0 18.9 96 0.4 W 4 4 2 2 1013.9 1013.8 0.0
19/01:30am 19.2 21.3 18.0 93 0.7 WSW 4 6 2 3 1013.9 1013.8 0.0
19/01:00am 19.3 21.7 18.0 92 0.8 SSW 2 4 1 2 1013.9 1013.8 0.0
19/12:30am 20.4 22.6 19.2 93 0.8 SSW 6 7 3 4 1014.1 1014.0 0.0
19/12:00am 20.1 23.3 18.8 92 0.8 CALM 0 0 0 0 1014.1 1014.0 0.0
 
Date/Time
CST
Temp
°C
App
Temp
°C
Dew
Point
°C
Rel
Hum
%
Delta-T
°C
Wind Press
QNH
hPa
Press
MSL
hPa
Rain since
9am
mm
Dir  Spd
km/h
Gust
km/h
Spd
kts
Gust
kts
18/11:30pm 20.3 23.3 18.4 89 1.2 CALM 0 0 0 0 1014.1 1014.0 0.0
18/11:00pm 20.7 23.6 19.0 90 1.1 SW 2 2 1 1 1014.1 1014.0 0.0
18/10:30pm 21.5 24.6 19.4 88 1.3 SW 2 6 1 3 1014.0 1013.9 0.0
18/10:00pm 22.0 24.7 19.5 86 1.6 SSW 4 6 2 3 1013.7 1013.6 0.0
18/09:30pm 22.4 24.5 20.1 87 1.5 SW 9 13 5 7 1013.4 1013.3 0.0
18/09:00pm 23.5 26.2 20.2 82 2.1 N 6 7 3 4 1012.9 1012.8 0.0
18/08:30pm 24.0 26.4 20.1 79 2.5 N 7 7 4 4 1012.4 1012.3 0.0
18/08:00pm 24.8 27.3 20.3 76 2.9 N 7 11 4 6 1012.0 1011.9 0.0
18/07:30pm 25.8 27.4 19.9 70 3.8 N 11 13 6 7 1011.6 1011.5 0.0
18/07:00pm 26.9 27.5 19.5 64 4.8 NNE 15 20 8 11 1011.1 1011.0 0.0
18/06:30pm 28.3 28.4 19.2 57 5.9 N 17 24 9 13 1010.6 1010.6 0.0
18/06:00pm 30.4 30.0 18.8 50 7.5 N 19 22 10 12 1010.2 1010.2 0.0
18/05:30pm 31.3 30.8 19.0 48 8.0 N 20 28 11 15 1009.8 1009.8 0.0
18/05:00pm 31.8 31.1 19.4 47 8.1 N 22 32 12 17 1009.6 1009.6 0.0
18/04:30pm 32.6 30.9 19.8 46 8.5 N 28 37 15 20 1009.4 1009.4 0.0
18/04:00pm 36.4 35.1 12.6 24 14.4 ESE 11 22 6 12 1009.2 1009.2 0.0
18/03:30pm 36.9 35.4 13.0 24 14.6 ENE 13 26 7 14 1009.3 1009.3 0.0
18/03:00pm 36.2 33.3 12.4 24 14.4 E 19 28 10 15 1009.7 1009.7 0.0
18/02:30pm 35.7 33.1 13.8 27 13.5 ENE 20 30 11 16 1010.1 1010.1 0.0
18/02:00pm 35.3 33.9 14.6 29 12.8 ESE 15 26 8 14 1010.6 1010.6 0.0
18/01:30pm 34.8 33.8 15.7 32 12.0 ESE 15 30 8 16 1011.3 1011.2 0.0
18/01:00pm 33.7 33.2 17.0 37 10.7 E 15 24 8 13 1011.9 1011.8 0.0
18/12:30pm 33.9 33.9 17.2 37 10.7 E 13 22 7 12 1012.3 1012.2 0.0
18/12:00pm 33.0 33.6 17.6 40 9.9 ENE 11 19 6 10 1012.9 1012.8 0.0
18/11:30am 32.9 32.4 17.9 41 9.7 E 17 24 9 13 1013.5 1013.4 0.0
18/11:00am 31.2 33.4 20.5 53 7.1 E 9 17 5 9 1014.0 1013.9 0.0
18/10:30am 29.6 31.6 20.7 58 5.9 NNE 11 19 6 10 1014.3 1014.2 0.0
18/10:00am 29.2 30.5 20.9 61 5.5 NE 15 20 8 11 1014.4 1014.3 0.0
18/09:30am 28.5 30.4 21.3 65 4.8 NE 13 20 7 11 1014.4 1014.3 0.0
18/09:00am 27.2 29.3 21.0 69 4.1 NE 11 17 6 9 1014.3 1014.2 0.0
18/08:30am 26.3 28.6 21.3 74 3.3 ENE 11 15 6 8 1014.1 1014.0 0.0
18/08:00am 24.4 29.1 22.7 90 1.1 ENE 2 6 1 3 1013.9 1013.8 0.0
18/07:30am 21.5 25.8 21.2 98 0.2 CALM 0 0 0 0 1013.6 1013.5 0.0
18/07:00am 21.2 25.2 20.5 96 0.5 CALM 0 0 0 0 1013.3 1013.2 0.0
18/06:30am 20.6 24.2 19.8 95 0.5 CALM 0 0 0 0 1012.7 1012.6 0.0
18/06:00am 21.0 24.8 20.2 95 0.5 CALM 0 0 0 0 1012.3 1012.2 0.0
18/05:30am 21.4 25.1 20.0 92 0.9 CALM 0 0 0 0 1011.9 1011.8 0.0
18/05:00am 22.9 27.3 21.4 91 1.0 CALM 0 0 0 0 1011.7 1011.6 0.0
18/04:30am 23.1 27.6 21.5 91 1.1 CALM 0 0 0 0 1011.5 1011.4 0.0
18/04:00am 23.5 28.3 22.1 92 0.9 CALM 0 2 0 1 1011.4 1011.3 0.0
18/03:30am 23.1 26.9 21.7 92 0.9 ENE 4 4 2 2 1011.2 1011.1 0.0
18/03:00am 23.3 26.9 21.2 88 1.4 E 4 6 2 3 1011.3 1011.2 0.0
18/02:30am 23.9 28.7 22.2 90 1.1 CALM 0 0 0 0 1011.4 1011.3 0.0
18/02:00am 23.7 28.4 22.0 90 1.1 CALM 0 0 0 0 1011.7 1011.6 0.0
18/01:30am 23.6 28.3 22.0 91 1.1 CALM 0 0 0 0 1011.9 1011.8 0.0
18/01:00am 23.0 26.7 22.2 95 0.5 E 6 9 3 5 1012.1 1012.0 0.0
18/12:30am 21.9 26.0 20.7 93 0.8 CALM 0 0 0 0 1012.1 1012.0 0.0
18/12:00am 22.3 26.4 20.8 91 1.0 CALM 0 0 0 0 1012.0 1011.9 0.0
 
Date/Time
CST
Temp
°C
App
Temp
°C
Dew
Point
°C
Rel
Hum
%
Delta-T
°C
Wind Press
QNH
hPa
Press
MSL
hPa
Rain since
9am
mm
Dir  Spd
km/h
Gust
km/h
Spd
kts
Gust
kts
17/11:30pm 22.3 26.1 20.9 92 0.9 N 2 2 1 1 1012.1 1012.0 0.0
17/11:00pm 23.0 26.7 21.5 91 1.0 N 4 6 2 3 1012.0 1011.9 0.0
17/10:30pm 22.8 26.6 20.9 89 1.2 NNW 2 2 1 1 1012.0 1011.9 0.0
17/10:00pm 23.6 27.1 21.1 86 1.6 N 4 4 2 2 1011.7 1011.6 0.0
17/09:30pm 23.9 27.3 21.6 87 1.5 N 6 6 3 3 1011.5 1011.4 0.0
17/09:00pm 23.8 27.7 20.3 81 2.3 CALM 0 0 0 0 1011.2 1011.1 0.0
17/08:30pm 25.7 30.2 21.6 78 2.7 CALM 0 2 0 1 1010.7 1010.7 0.0
17/08:00pm 25.4 28.6 21.3 78 2.7 N 6 6 3 3 1010.1 1010.1 0.0
17/07:30pm 26.3 29.7 21.7 76 3.1 N 6 9 3 5 1009.6 1009.6 0.0
17/07:00pm 26.8 30.0 21.6 73 3.5 N 7 9 4 5 1009.3 1009.3 0.0
17/06:30pm 28.4 31.4 21.9 68 4.4 N 9 13 5 7 1009.0 1009.0 0.0
17/06:00pm 29.5 31.1 22.2 65 4.9 N 17 22 9 12 1008.7 1008.7 0.0
17/05:30pm 30.7 32.4 22.3 61 5.7 N 17 24 9 13 1008.5 1008.5 0.0
17/05:00pm 31.5 32.6 21.9 56 6.5 NNE 19 26 10 14 1008.3 1008.3 0.0
17/04:30pm 32.7 33.8 21.9 53 7.4 NNE 19 26 10 14 1008.3 1008.3 0.0
17/04:00pm 33.1 34.5 21.9 51 7.6 N 17 22 9 12 1008.3 1008.3 0.0
17/03:30pm 33.5 35.8 19.9 44 9.0 ESE 7 13 4 7 1008.4 1008.4 0.0

Other Formats:

Comma delimited format used in spreadsheet applications
http://www.bom.gov.au/fwo/IDD60801/IDD60801.95121.axf

JavaScript Object Notation format (JSON) in row-major order
http://www.bom.gov.au/fwo/IDD60801/IDD60801.95121.json